createdAt,value
2022-12-17T00:01:04.707Z,9.23
2022-12-17T00:06:37.533Z,6.47
2022-12-17T00:09:23.203Z,7.82
2022-12-17T00:12:10.063Z,10.75
2022-12-17T00:14:55.891Z,9.68
2022-12-17T00:20:41.096Z,6.80
2022-12-17T00:23:27.767Z,7.18
2022-12-17T00:26:14.994Z,7.93
2022-12-17T00:29:01.169Z,9.57
2022-12-17T00:31:48.554Z,9.77
2022-12-17T00:34:34.690Z,8.98
2022-12-17T00:37:20.501Z,8.65
2022-12-17T00:40:05.839Z,9.02
2022-12-17T00:42:52.024Z,9.38
2022-12-17T00:48:23.162Z,6.95
2022-12-17T00:51:08.435Z,8.90
2022-12-17T00:53:53.838Z,10.30
2022-12-17T00:56:41.026Z,8.85
2022-12-17T00:59:26.734Z,10.82
2022-12-17T01:02:12.260Z,9.57
2022-12-17T01:04:57.758Z,9.60
2022-12-17T01:07:43.143Z,8.77
2022-12-17T01:10:28.565Z,9.98
2022-12-17T01:13:14.023Z,10.35
2022-12-17T01:15:59.792Z,8.98
2022-12-17T01:18:45.523Z,9.93
2022-12-17T01:21:31.359Z,9.73
2022-12-17T01:24:16.734Z,8.52
2022-12-17T01:27:02.967Z,6.28
2022-12-17T01:32:34.395Z,7.22
2022-12-17T01:35:20.252Z,8.45
2022-12-17T01:38:05.707Z,8.23
2022-12-17T01:40:51.461Z,6.40
2022-12-17T01:43:55.278Z,9.57
2022-12-17T01:46:41.288Z,7.95
2022-12-17T01:49:29.171Z,9.35
2022-12-17T01:52:16.655Z,7.65
2022-12-17T01:55:02.444Z,9.60
2022-12-17T01:57:48.473Z,8.93
2022-12-17T02:00:35.928Z,8.77
2022-12-17T02:03:22.591Z,8.07
2022-12-17T02:06:27.052Z,9.00
2022-12-17T02:09:57.255Z,7.70
2022-12-17T02:13:21.545Z,8.05
2022-12-17T02:16:20.414Z,7.28
2022-12-17T02:19:15.906Z,7.57
2022-12-17T02:22:02.967Z,8.15
2022-12-17T02:25:19.935Z,8.88
2022-12-17T02:28:06.251Z,8.05
2022-12-17T02:30:52.448Z,7.95
2022-12-17T02:33:38.977Z,7.85
2022-12-17T02:36:25.752Z,7.78
2022-12-17T02:39:18.623Z,7.95
2022-12-17T02:42:12.068Z,7.90
2022-12-17T02:44:59.371Z,9.15
2022-12-17T02:47:47.083Z,8.05
2022-12-17T02:50:33.333Z,8.77
2022-12-17T02:53:21.229Z,7.57
2022-12-17T02:56:06.550Z,8.90
2022-12-17T02:58:54.570Z,8.27
2022-12-17T03:01:40.128Z,8.20
2022-12-17T03:04:25.550Z,7.65
2022-12-17T03:07:10.829Z,6.43
2022-12-17T03:09:56.360Z,6.65
2022-12-17T03:12:43.138Z,6.30
2022-12-17T03:15:28.983Z,6.63
2022-12-17T03:18:14.354Z,6.70
2022-12-17T03:20:59.703Z,5.22
2022-12-17T03:23:45.285Z,6.40
2022-12-17T03:26:30.656Z,6.25
2022-12-17T03:29:16.443Z,6.75
2022-12-17T03:32:01.764Z,6.50
2022-12-17T03:34:47.102Z,7.70
2022-12-17T03:37:32.447Z,7.38
2022-12-17T03:40:17.793Z,7.28
2022-12-17T03:43:03.094Z,6.63
2022-12-17T03:45:48.306Z,7.20
2022-12-17T03:48:34.487Z,5.90
2022-12-17T03:54:05.549Z,5.28
2022-12-17T03:56:51.374Z,6.90
2022-12-17T03:59:36.902Z,6.65
2022-12-17T04:02:43.050Z,7.60
2022-12-17T04:05:28.690Z,5.93
2022-12-17T04:08:14.202Z,7.25
2022-12-17T04:10:59.615Z,7.00
2022-12-17T04:13:45.187Z,5.55
2022-12-17T04:16:30.901Z,7.32
2022-12-17T04:19:16.434Z,6.75
2022-12-17T04:22:01.607Z,6.93
2022-12-17T04:24:47.002Z,6.03
2022-12-17T04:27:32.108Z,6.00
2022-12-17T04:30:17.532Z,4.95
2022-12-17T04:33:03.176Z,6.38
2022-12-17T04:35:48.480Z,6.95
2022-12-17T04:38:33.938Z,8.02
2022-12-17T04:41:19.336Z,5.85
2022-12-17T04:44:04.666Z,7.22
2022-12-17T04:46:50.031Z,7.05
2022-12-17T04:49:35.524Z,6.53
2022-12-17T04:52:21.214Z,7.25
2022-12-17T04:55:06.550Z,6.07
2022-12-17T04:57:52.422Z,7.75
2022-12-17T05:00:38.248Z,11.20
2022-12-17T05:03:31.280Z,8.82
2022-12-17T05:06:16.746Z,11.27
2022-12-17T05:09:02.047Z,10.80
2022-12-17T05:11:47.203Z,10.40
2022-12-17T05:14:32.829Z,6.97
2022-12-17T05:17:18.226Z,10.32
2022-12-17T05:20:03.835Z,10.63
2022-12-17T05:22:49.752Z,10.70
2022-12-17T05:25:35.350Z,12.98
2022-12-17T05:28:20.683Z,7.22
2022-12-17T05:31:13.891Z,5.35
2022-12-17T05:33:59.622Z,5.60
2022-12-17T05:36:45.022Z,5.35
2022-12-17T05:39:30.416Z,5.50
2022-12-17T05:42:15.793Z,6.18
2022-12-17T05:45:01.218Z,6.50
2022-12-17T05:47:46.706Z,5.45
2022-12-17T05:50:32.178Z,4.47
2022-12-17T05:53:24.905Z,4.50
2022-12-17T05:56:11.991Z,4.72
2022-12-17T05:58:58.327Z,5.40
2022-12-17T06:01:43.796Z,5.30
2022-12-17T06:04:29.489Z,4.78
2022-12-17T06:07:19.462Z,5.70
2022-12-17T06:10:04.972Z,3.97
2022-12-17T06:12:50.450Z,4.68
2022-12-17T06:15:35.686Z,5.10
2022-12-17T06:18:21.222Z,5.65
2022-12-17T06:21:07.231Z,4.22
2022-12-17T06:23:52.761Z,5.45
2022-12-17T06:26:38.123Z,6.07
2022-12-17T06:29:23.424Z,4.70
2022-12-17T06:32:08.733Z,4.13
2022-12-17T06:34:54.047Z,4.18
2022-12-17T06:37:39.739Z,4.82
2022-12-17T06:40:25.754Z,4.93
2022-12-17T06:43:15.205Z,5.00
2022-12-17T06:46:00.767Z,4.55
2022-12-17T06:48:46.170Z,4.18
2022-12-17T06:51:31.349Z,5.10
2022-12-17T06:54:17.346Z,4.53
2022-12-17T06:57:02.663Z,5.00
2022-12-17T06:59:48.430Z,4.43
2022-12-17T07:02:34.090Z,5.90
2022-12-17T07:05:19.473Z,9.35
2022-12-17T07:08:04.912Z,7.10
2022-12-17T07:10:50.408Z,5.40
2022-12-17T07:13:35.954Z,4.60
2022-12-17T07:16:21.860Z,4.90
2022-12-17T07:19:07.229Z,4.55
2022-12-17T07:21:52.600Z,4.93
2022-12-17T07:24:37.747Z,5.30
2022-12-17T07:27:23.421Z,4.70
2022-12-17T07:30:09.023Z,4.68
2022-12-17T07:32:54.321Z,5.15
2022-12-17T07:35:39.588Z,4.78
2022-12-17T07:38:25.488Z,4.68
2022-12-17T07:41:10.724Z,5.20
2022-12-17T07:43:56.158Z,4.63
2022-12-17T07:46:42.092Z,3.08
2022-12-17T07:49:27.817Z,4.47
2022-12-17T07:52:13.405Z,4.20
2022-12-17T07:54:58.762Z,5.93
2022-12-17T07:57:44.445Z,5.05
2022-12-17T08:00:30.947Z,5.90
2022-12-17T08:03:20.269Z,5.10
2022-12-17T08:06:05.710Z,5.10
2022-12-17T08:08:51.125Z,4.68
2022-12-17T08:11:36.524Z,4.38
2022-12-17T08:14:22.096Z,5.07
2022-12-17T08:17:07.595Z,5.50
2022-12-17T08:19:53.004Z,5.18
2022-12-17T08:22:38.297Z,4.90
2022-12-17T08:25:23.861Z,5.82
2022-12-17T08:28:48.423Z,5.43
2022-12-17T08:31:21.262Z,4.90
2022-12-17T08:34:08.165Z,4.95
2022-12-17T08:36:54.109Z,4.55
2022-12-17T08:39:39.412Z,6.18
2022-12-17T08:42:24.731Z,5.75
2022-12-17T08:45:10.116Z,6.00
2022-12-17T08:47:59.236Z,4.65
2022-12-17T08:50:49.049Z,5.30
2022-12-17T08:53:35.144Z,7.40
2022-12-17T08:56:20.811Z,7.10
2022-12-17T08:59:06.577Z,4.70
2022-12-17T09:01:51.997Z,7.53
2022-12-17T09:04:37.819Z,6.93
2022-12-17T09:07:23.553Z,8.73
2022-12-17T09:10:09.057Z,8.32
2022-12-17T09:12:54.301Z,6.50
2022-12-17T09:15:39.980Z,8.00
2022-12-17T09:18:25.446Z,7.70
2022-12-17T09:21:14.483Z,8.95
2022-12-17T09:24:00.006Z,9.27
2022-12-17T09:26:45.141Z,8.07
2022-12-17T09:29:35.245Z,6.82
2022-12-17T09:32:21.064Z,7.68
2022-12-17T09:35:06.383Z,8.25
2022-12-17T09:37:51.924Z,7.82
2022-12-17T09:40:41.447Z,8.00
2022-12-17T09:44:06.390Z,7.88
2022-12-17T09:46:54.862Z,7.57
2022-12-17T09:49:48.039Z,7.57
2022-12-17T09:52:43.120Z,8.10
2022-12-17T09:55:48.420Z,7.82
2022-12-17T09:58:45.492Z,8.40
2022-12-17T10:01:37.645Z,9.00
2022-12-17T10:04:26.021Z,15.32
2022-12-17T10:07:11.468Z,10.27
2022-12-17T10:09:57.254Z,6.80
2022-12-17T10:12:42.666Z,9.77
2022-12-17T10:15:41.290Z,7.60
2022-12-17T10:18:30.861Z,9.10
2022-12-17T10:21:19.574Z,8.93
2022-12-17T10:24:04.811Z,9.25
2022-12-17T10:26:52.555Z,10.63
2022-12-17T10:29:47.101Z,10.73
2022-12-17T10:32:33.132Z,9.95
2022-12-17T10:35:39.387Z,11.43
2022-12-17T10:38:51.504Z,8.77
2022-12-17T10:41:46.024Z,9.85
2022-12-17T10:44:53.654Z,10.40
2022-12-17T10:47:40.380Z,12.13
2022-12-17T10:50:41.597Z,12.50
2022-12-17T10:53:41.281Z,11.82
2022-12-17T10:56:40.604Z,13.38
2022-12-17T10:59:50.026Z,13.73
2022-12-17T11:02:39.460Z,13.32
2022-12-17T11:05:41.160Z,15.00
2022-12-17T11:08:27.651Z,13.43
2022-12-17T11:11:13.072Z,13.80
2022-12-17T11:14:08.100Z,15.73
2022-12-17T11:17:03.396Z,13.10
2022-12-17T11:20:01.112Z,12.43
2022-12-17T11:23:09.993Z,14.30
2022-12-17T11:26:21.245Z,14.82
2022-12-17T11:29:06.807Z,13.52
2022-12-17T11:32:05.183Z,11.45
2022-12-17T11:35:19.704Z,13.70
2022-12-17T11:38:05.046Z,14.85
2022-12-17T11:40:59.461Z,17.20
2022-12-17T11:43:57.536Z,13.80
2022-12-17T11:46:57.576Z,16.30
2022-12-17T11:49:55.847Z,12.65
2022-12-17T11:52:56.709Z,14.65
2022-12-17T11:56:01.451Z,15.32
2022-12-17T11:59:00.775Z,14.55
2022-12-17T12:02:17.449Z,14.52
2022-12-17T12:05:10.462Z,11.57
2022-12-17T12:08:11.651Z,13.65
2022-12-17T12:11:26.869Z,14.27
2022-12-17T12:14:45.031Z,12.77
2022-12-17T12:18:04.823Z,13.68
2022-12-17T12:21:02.397Z,15.30
2022-12-17T12:23:54.355Z,14.43
2022-12-17T12:26:49.511Z,14.15
2022-12-17T12:29:53.740Z,16.15
2022-12-17T12:32:57.383Z,14.73
2022-12-17T12:35:46.815Z,14.77
2022-12-17T12:38:45.854Z,16.10
2022-12-17T12:42:05.892Z,14.75
2022-12-17T12:45:11.398Z,15.45
2022-12-17T12:48:09.587Z,15.88
2022-12-17T12:51:01.094Z,16.27
2022-12-17T12:53:46.349Z,16.30
2022-12-17T12:56:54.377Z,15.52
2022-12-17T12:59:45.552Z,15.38
2022-12-17T13:02:48.042Z,14.80
2022-12-17T13:05:34.473Z,16.70
2022-12-17T13:08:10.040Z,15.07
2022-12-17T13:10:37.682Z,16.30
2022-12-17T13:13:15.654Z,17.48
2022-12-17T13:15:48.046Z,16.33
2022-12-17T13:18:32.864Z,17.20
2022-12-17T13:21:01.350Z,15.48
2022-12-17T13:23:34.901Z,19.10
2022-12-17T13:26:23.654Z,19.05
2022-12-17T13:29:00.854Z,17.27
2022-12-17T13:31:44.106Z,17.42
2022-12-17T13:34:28.998Z,16.70
2022-12-17T13:37:07.311Z,17.88
2022-12-17T13:40:07.019Z,18.15
2022-12-17T13:42:36.536Z,17.10
2022-12-17T13:45:04.375Z,16.63
2022-12-17T13:47:34.525Z,15.85
2022-12-17T13:50:33.322Z,16.60
2022-12-17T13:52:51.691Z,17.98
2022-12-17T13:55:22.641Z,16.88
2022-12-17T13:57:50.672Z,18.85
2022-12-17T14:00:24.273Z,18.17
2022-12-17T14:02:52.112Z,17.77
2022-12-17T14:05:38.184Z,17.98
2022-12-17T14:08:05.952Z,18.00
2022-12-17T14:10:33.228Z,18.45
2022-12-17T14:13:10.558Z,16.55
2022-12-17T14:15:37.533Z,18.02
2022-12-17T14:18:05.012Z,17.67
2022-12-17T14:20:35.517Z,17.67
2022-12-17T14:23:02.415Z,16.65
2022-12-17T14:25:36.843Z,17.48
2022-12-17T14:28:19.703Z,16.50
2022-12-17T14:31:17.696Z,17.90
2022-12-17T14:33:36.401Z,18.02
2022-12-17T14:36:25.852Z,18.23
2022-12-17T14:38:57.595Z,17.30
2022-12-17T14:41:44.319Z,18.13
2022-12-17T14:44:26.151Z,17.17
2022-12-17T14:47:13.385Z,17.65
2022-12-17T14:50:09.244Z,15.93
2022-12-17T14:52:38.240Z,14.10
2022-12-17T14:55:29.232Z,18.20
2022-12-17T14:58:13.708Z,18.80
2022-12-17T15:00:46.780Z,19.55
2022-12-17T15:03:23.623Z,16.73
2022-12-17T15:05:53.685Z,20.08
2022-12-17T15:08:21.705Z,18.58
2022-12-17T15:10:48.812Z,19.25
2022-12-17T15:13:15.651Z,18.73
2022-12-17T15:15:42.447Z,17.80
2022-12-17T15:18:09.370Z,18.00
2022-12-17T15:20:36.614Z,17.77
2022-12-17T15:23:03.496Z,18.23
2022-12-17T15:25:30.663Z,17.00
2022-12-17T15:27:57.579Z,18.48
2022-12-17T15:30:24.499Z,19.50
2022-12-17T15:32:51.343Z,19.20
2022-12-17T15:35:18.264Z,18.65
2022-12-17T15:37:45.086Z,20.90
2022-12-17T15:40:12.184Z,19.73
2022-12-17T15:43:01.645Z,22.00
2022-12-17T15:45:32.850Z,17.73
2022-12-17T15:47:59.711Z,20.80
2022-12-17T15:50:26.555Z,19.20
2022-12-17T15:52:53.310Z,20.10
2022-12-17T15:55:20.199Z,18.80
2022-12-17T15:57:47.093Z,19.45
2022-12-17T16:00:14.434Z,19.20
2022-12-17T16:02:41.325Z,16.98
2022-12-17T16:05:08.632Z,19.10
2022-12-17T16:07:37.031Z,16.05
2022-12-17T16:10:05.773Z,16.45
2022-12-17T16:12:33.464Z,15.38
2022-12-17T16:15:00.376Z,16.23
2022-12-17T16:17:28.730Z,16.65
2022-12-17T16:19:56.010Z,16.40
2022-12-17T16:22:22.889Z,15.75
2022-12-17T16:24:49.742Z,16.65
2022-12-17T16:27:18.116Z,17.50
2022-12-17T16:29:47.919Z,15.20
2022-12-17T16:32:15.979Z,15.77
2022-12-17T16:34:43.492Z,16.15
2022-12-17T16:37:11.467Z,16.45
2022-12-17T16:39:38.942Z,19.45
2022-12-17T16:42:05.791Z,25.33
2022-12-17T16:44:32.588Z,37.92
2022-12-17T16:46:59.773Z,47.33
2022-12-17T16:49:27.248Z,44.17
2022-12-17T16:51:57.820Z,28.33
2022-12-17T16:54:27.049Z,21.60
2022-12-17T16:56:54.680Z,17.83
2022-12-17T16:59:23.361Z,19.10
2022-12-17T17:01:51.684Z,19.67
2022-12-17T17:04:21.819Z,20.95
2022-12-17T17:06:51.478Z,21.73
2022-12-17T17:09:19.204Z,18.52
2022-12-17T17:11:51.227Z,17.70
2022-12-17T17:14:18.503Z,18.20
2022-12-17T17:16:45.288Z,19.40
2022-12-17T17:19:12.066Z,20.33
2022-12-17T17:21:40.765Z,18.27
2022-12-17T17:24:16.801Z,21.27
2022-12-17T17:26:47.846Z,20.17
2022-12-17T17:29:14.852Z,19.98
2022-12-17T17:34:28.490Z,20.17
2022-12-17T17:36:55.279Z,20.42
2022-12-17T17:39:22.158Z,19.67
2022-12-17T17:41:48.958Z,17.20
2022-12-17T17:44:15.854Z,17.77
2022-12-17T17:46:42.822Z,19.65
2022-12-17T17:49:10.557Z,17.58
2022-12-17T17:54:28.171Z,17.30
2022-12-17T17:56:55.551Z,18.23
2022-12-17T17:59:29.568Z,17.48
2022-12-17T18:02:00.627Z,17.77
2022-12-17T18:04:27.864Z,17.88
2022-12-17T18:09:41.694Z,15.60
2022-12-17T18:12:27.221Z,16.67
2022-12-17T18:17:41.176Z,16.40
2022-12-17T18:20:09.774Z,16.17
2022-12-17T18:22:37.184Z,16.92
2022-12-17T18:25:04.651Z,16.90
2022-12-17T18:27:31.694Z,18.27
2022-12-17T18:29:58.623Z,15.15
2022-12-17T18:32:25.792Z,15.63
2022-12-17T18:34:52.912Z,16.48
2022-12-17T18:37:19.864Z,16.65
2022-12-17T18:39:47.343Z,18.92
2022-12-17T18:42:33.069Z,18.60
2022-12-17T18:44:59.974Z,19.70
2022-12-17T18:47:27.374Z,17.08
2022-12-17T18:49:54.511Z,20.42
2022-12-17T18:52:23.567Z,18.05
2022-12-17T18:54:50.375Z,19.83
2022-12-17T18:57:17.349Z,19.80
2022-12-17T18:59:44.166Z,18.88
2022-12-17T19:02:14.726Z,20.58
2022-12-17T19:04:41.946Z,20.38
2022-12-17T19:07:09.350Z,18.63
2022-12-17T19:09:36.679Z,20.33
2022-12-17T19:12:06.752Z,17.88
2022-12-17T19:14:34.779Z,19.38
2022-12-17T19:17:02.584Z,20.08
2022-12-17T19:19:29.679Z,20.30
2022-12-17T19:21:59.663Z,18.92
2022-12-17T19:24:26.879Z,19.38
2022-12-17T19:26:54.232Z,20.63
2022-12-17T19:29:22.332Z,19.50
2022-12-17T19:31:49.916Z,18.05
2022-12-17T19:34:19.176Z,19.58
2022-12-17T19:36:47.390Z,21.02
2022-12-17T19:39:17.384Z,19.65
2022-12-17T19:41:44.363Z,20.02
2022-12-17T19:44:13.872Z,18.75
2022-12-17T19:46:41.224Z,20.67
2022-12-17T19:49:11.048Z,21.40
2022-12-17T19:51:40.339Z,20.58
2022-12-17T19:54:09.061Z,20.17
2022-12-17T19:56:36.805Z,21.38
2022-12-17T19:59:07.569Z,21.60
2022-12-17T20:01:37.407Z,18.92
2022-12-17T20:04:05.681Z,19.38
2022-12-17T20:06:34.411Z,18.55
2022-12-17T20:09:03.735Z,18.77
2022-12-17T20:11:33.403Z,18.23
2022-12-17T20:14:14.044Z,19.95
2022-12-17T20:16:50.077Z,19.08
2022-12-17T20:19:22.956Z,20.35
2022-12-17T20:21:50.832Z,20.75
2022-12-17T20:24:18.490Z,20.23
2022-12-17T20:26:48.359Z,19.63
2022-12-17T20:29:15.301Z,19.02
2022-12-17T20:31:49.549Z,18.33
2022-12-17T20:34:18.926Z,18.38
2022-12-17T20:36:49.118Z,19.65
2022-12-17T20:39:16.311Z,18.27
2022-12-17T20:41:44.377Z,18.10
2022-12-17T20:44:14.767Z,18.17
2022-12-17T20:46:42.700Z,18.63
2022-12-17T20:49:11.940Z,20.52
2022-12-17T20:51:39.022Z,17.05
2022-12-17T20:54:08.234Z,16.58
2022-12-17T20:56:35.662Z,18.02
2022-12-17T20:59:06.801Z,18.73
2022-12-17T21:01:36.499Z,18.10
2022-12-17T21:04:07.285Z,16.90
2022-12-17T21:06:40.181Z,17.40
2022-12-17T21:09:08.421Z,16.63
2022-12-17T21:11:36.893Z,16.15
2022-12-17T21:14:06.797Z,16.67
2022-12-17T21:16:34.805Z,14.82
2022-12-17T21:19:04.126Z,17.05
2022-12-17T21:21:33.784Z,16.35
2022-12-17T21:24:01.403Z,14.07
2022-12-17T21:26:33.951Z,16.33
2022-12-17T21:29:02.935Z,14.27
2022-12-17T21:31:33.120Z,14.70
2022-12-17T21:34:02.823Z,15.38
2022-12-17T21:36:31.908Z,16.10
2022-12-17T21:38:59.298Z,17.08
2022-12-17T21:41:29.340Z,13.68
2022-12-17T21:43:58.718Z,14.38
2022-12-17T21:46:27.353Z,14.32
2022-12-17T21:48:55.336Z,12.98
2022-12-17T21:51:22.574Z,14.57
2022-12-17T21:53:54.439Z,13.98
2022-12-17T21:56:22.002Z,13.88
2022-12-17T21:58:49.960Z,14.10
2022-12-17T22:01:23.636Z,13.00
2022-12-17T22:03:53.625Z,11.80
2022-12-17T22:06:23.888Z,11.30
2022-12-17T22:08:54.751Z,11.82
2022-12-17T22:11:28.194Z,11.20
2022-12-17T22:14:07.507Z,11.80
2022-12-17T22:16:46.671Z,11.55
2022-12-17T22:19:25.418Z,13.15
2022-12-17T22:21:55.791Z,10.73
2022-12-17T22:24:25.256Z,12.68
2022-12-17T22:26:59.990Z,12.38
2022-12-17T22:29:46.951Z,10.60
2022-12-17T22:32:33.570Z,11.05
2022-12-17T22:36:09.963Z,11.48
2022-12-17T22:41:45.051Z,10.90
2022-12-17T22:44:35.059Z,10.43
2022-12-17T22:44:46.627Z,8.73
2022-12-17T22:46:16.918Z,9.55
2022-12-17T22:48:44.137Z,11.50
2022-12-17T22:51:16.989Z,10.30
2022-12-17T22:53:46.463Z,9.05
2022-12-17T22:56:28.992Z,10.05
2022-12-17T22:59:00.783Z,8.98
2022-12-17T23:01:27.719Z,10.45
2022-12-17T23:03:59.562Z,12.48
2022-12-17T23:06:26.888Z,13.77
2022-12-17T23:08:54.293Z,13.07
2022-12-17T23:11:23.526Z,11.40
2022-12-17T23:13:51.134Z,10.23
2022-12-17T23:16:18.549Z,11.05
2022-12-17T23:18:46.914Z,11.98
2022-12-17T23:21:23.882Z,10.75
2022-12-17T23:23:51.933Z,10.77
2022-12-17T23:26:21.296Z,11.23
2022-12-17T23:28:48.457Z,11.88
2022-12-17T23:31:18.970Z,10.93
2022-12-17T23:33:46.617Z,11.38
2022-12-17T23:36:22.441Z,11.13
2022-12-17T23:38:50.600Z,12.95
2022-12-17T23:41:23.455Z,11.23
2022-12-17T23:43:50.702Z,10.18
2022-12-17T23:46:19.166Z,11.48
2022-12-17T23:48:47.345Z,11.63
2022-12-17T23:51:17.201Z,12.43
2022-12-17T23:53:44.544Z,12.60
2022-12-17T23:56:18.018Z,12.38
2022-12-17T23:58:46.069Z,12.35
